createdAt,value
2018-02-05T00:01:13.594Z,32.30
2018-02-05T00:03:40.629Z,32.30
2018-02-05T00:06:08.346Z,33.20
2018-02-05T00:08:35.268Z,32.50
2018-02-05T00:11:02.221Z,32.40
2018-02-05T00:13:29.162Z,32.30
2018-02-05T00:15:56.867Z,32.40
2018-02-05T00:18:23.813Z,32.20
2018-02-05T00:20:50.754Z,32.30
2018-02-05T00:23:17.697Z,32.20
2018-02-05T00:25:44.621Z,32.30
2018-02-05T00:28:12.344Z,32.40
2018-02-05T00:30:39.305Z,32.30
2018-02-05T00:33:06.252Z,33.10
2018-02-05T00:35:33.192Z,32.30
2018-02-05T00:38:00.140Z,32.30
2018-02-05T00:43:00.520Z,32.40
2018-02-05T00:45:27.493Z,32.30
2018-02-05T00:47:55.212Z,32.30
2018-02-05T00:50:22.161Z,32.30
2018-02-05T00:52:49.104Z,33.00
2018-02-05T00:55:16.099Z,32.30
2018-02-05T00:57:43.036Z,32.30
2018-02-05T01:02:46.091Z,32.20
2018-02-05T01:05:13.772Z,32.40
2018-02-05T01:07:40.704Z,32.20
2018-02-05T01:10:07.685Z,32.40
2018-02-05T01:12:34.600Z,32.30
2018-02-05T01:15:01.536Z,32.30
2018-02-05T01:17:28.732Z,32.30
2018-02-05T01:19:55.696Z,32.20
2018-02-05T01:22:23.660Z,32.20
2018-02-05T01:24:50.610Z,32.20
2018-02-05T01:27:17.555Z,32.20
2018-02-05T01:29:44.505Z,32.20
2018-02-05T01:32:11.456Z,32.40
2018-02-05T01:34:39.203Z,32.20
2018-02-05T01:37:06.893Z,32.20
2018-02-05T01:39:33.832Z,32.20
2018-02-05T01:42:01.932Z,32.20
2018-02-05T01:44:30.027Z,32.10
2018-02-05T01:46:56.983Z,32.10
2018-02-05T01:49:23.937Z,32.20
2018-02-05T01:51:56.024Z,32.20
2018-02-05T01:54:22.965Z,32.20
2018-02-05T01:56:49.908Z,32.20
2018-02-05T01:59:16.852Z,32.20
2018-02-05T02:01:44.052Z,32.20
2018-02-05T02:04:11.805Z,32.20
2018-02-05T02:06:39.533Z,32.80
2018-02-05T02:09:06.511Z,32.10
2018-02-05T02:11:33.460Z,32.10
2018-02-05T02:14:00.525Z,32.00
2018-02-05T02:16:27.509Z,32.10
2018-02-05T02:18:54.437Z,32.00
2018-02-05T02:21:22.146Z,32.10
2018-02-05T02:23:49.128Z,32.00
2018-02-05T02:26:16.068Z,32.00
2018-02-05T02:28:43.004Z,32.00
2018-02-05T02:31:09.946Z,32.00
2018-02-05T02:33:36.885Z,32.10
2018-02-05T02:36:03.849Z,32.00
2018-02-05T02:38:30.778Z,32.10
2018-02-05T02:40:57.730Z,32.10
2018-02-05T02:43:24.686Z,32.00
2018-02-05T02:45:51.880Z,32.10
2018-02-05T02:48:18.825Z,32.00
2018-02-05T02:50:45.784Z,32.00
2018-02-05T02:53:12.780Z,32.00
2018-02-05T02:55:40.474Z,32.00
2018-02-05T02:58:07.433Z,32.00
2018-02-05T03:00:35.489Z,32.00
2018-02-05T03:03:02.440Z,32.00
2018-02-05T03:05:29.403Z,32.00
2018-02-05T03:07:56.336Z,32.10
2018-02-05T03:10:23.272Z,32.00
2018-02-05T03:12:50.986Z,32.00
2018-02-05T03:15:17.922Z,32.00
2018-02-05T03:17:44.875Z,32.00
2018-02-05T03:20:11.825Z,32.00
2018-02-05T03:22:38.878Z,32.00
2018-02-05T03:25:05.827Z,32.10
2018-02-05T03:27:32.871Z,32.00
2018-02-05T03:29:59.804Z,32.00
2018-02-05T03:32:26.748Z,32.70
2018-02-05T03:34:53.689Z,32.00
2018-02-05T03:37:21.383Z,32.00
2018-02-05T03:39:48.316Z,32.00
2018-02-05T03:42:16.016Z,32.00
2018-02-05T03:44:42.947Z,32.00
2018-02-05T03:47:09.912Z,32.00
2018-02-05T03:57:18.971Z,32.00
2018-02-05T03:59:46.676Z,31.90
2018-02-05T04:02:13.614Z,31.90
2018-02-05T04:04:40.548Z,31.90
2018-02-05T04:07:07.508Z,32.00
2018-02-05T04:09:34.464Z,32.00
2018-02-05T04:12:01.409Z,32.00
2018-02-05T04:14:28.361Z,31.90
2018-02-05T04:16:55.316Z,31.90
2018-02-05T04:19:23.017Z,32.00
2018-02-05T04:21:49.964Z,32.60
2018-02-05T04:24:16.920Z,31.90
2018-02-05T04:26:43.862Z,31.90
2018-02-05T04:41:55.407Z,31.90
2018-02-05T04:44:22.348Z,31.90
2018-02-05T04:46:49.293Z,32.20
2018-02-05T04:49:22.881Z,32.50
2018-02-05T04:51:49.812Z,32.40
2018-02-05T04:54:16.795Z,32.60
2018-02-05T04:56:43.713Z,32.70
2018-02-05T04:59:10.656Z,32.70
2018-02-05T05:01:37.609Z,33.40
2018-02-05T05:04:04.553Z,32.70
2018-02-05T05:06:31.483Z,32.70
2018-02-05T05:09:01.872Z,32.70
2018-02-05T05:11:29.582Z,32.70
2018-02-05T05:13:56.529Z,32.70
2018-02-05T05:16:24.236Z,32.80
2018-02-05T05:18:51.193Z,32.70
2018-02-05T05:21:19.452Z,32.60
2018-02-05T05:23:48.512Z,32.70
2018-02-05T05:26:15.447Z,32.70
2018-02-05T05:31:15.584Z,33.00
2018-02-05T05:33:42.528Z,33.10
2018-02-05T05:36:11.333Z,33.20
2018-02-05T05:38:39.416Z,33.20
2018-02-05T05:41:07.117Z,33.20
2018-02-05T05:43:34.067Z,33.20
2018-02-05T05:46:01.019Z,33.20
2018-02-05T05:48:28.730Z,32.90
2018-02-05T05:50:56.444Z,32.60
2018-02-05T05:53:23.376Z,32.80
2018-02-05T05:55:50.324Z,33.00
2018-02-05T05:58:17.276Z,33.40
2018-02-05T06:00:46.525Z,33.20
2018-02-05T06:03:13.472Z,33.00
2018-02-05T06:05:40.420Z,33.20
2018-02-05T06:08:07.385Z,33.00
2018-02-05T06:10:34.325Z,32.90
2018-02-05T06:13:01.260Z,32.80
2018-02-05T06:15:28.220Z,32.60
2018-02-05T06:17:55.160Z,32.60
2018-02-05T06:20:22.108Z,32.60
2018-02-05T06:22:49.061Z,32.50
2018-02-05T06:25:16.023Z,32.40
2018-02-05T06:27:45.071Z,32.40
2018-02-05T06:30:12.781Z,32.40
2018-02-05T06:32:39.729Z,32.40
2018-02-05T06:35:06.678Z,32.40
2018-02-05T06:37:34.120Z,32.30
2018-02-05T06:40:01.529Z,32.30
2018-02-05T06:42:28.467Z,32.30
2018-02-05T06:44:55.405Z,32.30
2018-02-05T06:47:22.372Z,32.30
2018-02-05T06:49:49.309Z,32.30
2018-02-05T06:52:16.260Z,32.30
2018-02-05T06:54:43.206Z,32.20
2018-02-05T06:57:10.140Z,32.10
2018-02-05T06:59:37.086Z,32.10
2018-02-05T07:02:04.033Z,31.90
2018-02-05T07:04:30.980Z,32.00
2018-02-05T07:06:57.920Z,31.80
2018-02-05T07:09:24.866Z,31.60
2018-02-05T07:11:51.795Z,31.60
2018-02-05T07:14:18.750Z,31.50
2018-02-05T07:16:45.694Z,31.50
2018-02-05T07:19:12.640Z,31.70
2018-02-05T07:21:39.572Z,31.20
2018-02-05T07:24:06.513Z,31.20
2018-02-05T07:26:33.450Z,31.20
2018-02-05T07:29:00.384Z,30.90
2018-02-05T07:31:27.344Z,30.70
2018-02-05T07:33:55.449Z,30.60
2018-02-05T07:36:22.429Z,30.60
2018-02-05T07:38:49.380Z,30.60
2018-02-05T07:41:16.314Z,30.40
2018-02-05T07:43:43.258Z,31.20
2018-02-05T07:46:10.226Z,30.30
2018-02-05T07:48:37.196Z,30.50
2018-02-05T07:51:04.914Z,30.50
2018-02-05T07:53:31.864Z,30.50
2018-02-05T07:55:58.805Z,30.60
2018-02-05T07:58:25.737Z,30.50
2018-02-05T08:00:52.928Z,30.70
2018-02-05T08:03:19.877Z,30.60
2018-02-05T08:05:46.856Z,30.60
2018-02-05T08:08:13.802Z,30.70
2018-02-05T08:10:40.737Z,30.80
2018-02-05T08:13:07.696Z,30.80
2018-02-05T08:15:34.636Z,30.90
2018-02-05T08:18:01.584Z,31.00
2018-02-05T08:20:28.531Z,30.90
2018-02-05T08:22:55.494Z,30.80
2018-02-05T08:25:22.449Z,30.80
2018-02-05T08:27:49.401Z,30.80
2018-02-05T08:30:16.372Z,30.80
2018-02-05T08:32:43.329Z,30.70
2018-02-05T08:35:11.053Z,31.30
2018-02-05T08:37:38.010Z,30.70
2018-02-05T08:40:04.958Z,30.50
2018-02-05T08:42:31.926Z,30.50
2018-02-05T08:44:58.868Z,30.40
2018-02-05T08:47:25.823Z,30.40
2018-02-05T08:49:52.765Z,30.30
2018-02-05T08:52:20.478Z,30.30
2018-02-05T08:54:47.440Z,30.30
2018-02-05T08:57:14.378Z,30.30
2018-02-05T08:59:41.319Z,30.30
2018-02-05T09:02:09.061Z,30.20
2018-02-05T09:04:35.977Z,30.10
2018-02-05T09:07:02.912Z,30.30
2018-02-05T09:09:29.854Z,30.30
2018-02-05T09:11:56.796Z,30.10
2018-02-05T09:14:24.512Z,30.10
2018-02-05T09:16:51.469Z,30.10
2018-02-05T09:19:18.406Z,30.20
2018-02-05T09:21:45.345Z,30.30
2018-02-05T09:24:12.316Z,30.50
2018-02-05T09:26:39.245Z,30.30
2018-02-05T09:29:06.180Z,30.30
2018-02-05T09:31:33.129Z,30.20
2018-02-05T09:34:01.241Z,30.50
2018-02-05T09:36:28.181Z,30.40
2018-02-05T09:38:55.121Z,30.40
2018-02-05T09:41:22.057Z,30.50
2018-02-05T09:43:49.001Z,30.60
2018-02-05T09:46:15.928Z,30.60
2018-02-05T09:48:43.641Z,31.40
2018-02-05T09:51:10.577Z,30.70
2018-02-05T09:53:37.555Z,30.80
2018-02-05T09:56:04.501Z,30.80
2018-02-05T09:58:31.485Z,30.90
2018-02-05T10:00:58.421Z,30.90
2018-02-05T10:03:25.376Z,30.90
2018-02-05T10:05:52.333Z,31.00
2018-02-05T10:08:19.280Z,31.10
2018-02-05T10:10:46.221Z,31.10
2018-02-05T10:13:13.177Z,31.10
2018-02-05T10:15:40.124Z,31.20
2018-02-05T10:18:07.090Z,31.20
2018-02-05T10:20:34.004Z,31.30
2018-02-05T10:23:00.946Z,31.30
2018-02-05T10:25:27.884Z,31.30
2018-02-05T10:27:54.849Z,31.40
2018-02-05T10:30:21.781Z,31.40
2018-02-05T10:32:48.724Z,31.40
2018-02-05T10:35:15.705Z,31.50
2018-02-05T10:37:42.626Z,31.40
2018-02-05T10:40:09.570Z,31.40
2018-02-05T10:42:37.303Z,31.50
2018-02-05T10:45:04.259Z,31.10
2018-02-05T10:47:31.198Z,31.50
2018-02-05T10:49:58.133Z,31.50
2018-02-05T10:52:25.088Z,31.50
2018-02-05T10:54:52.051Z,31.50
2018-02-05T10:57:18.998Z,31.50
2018-02-05T10:59:45.953Z,31.50
2018-02-05T11:02:12.960Z,31.50
2018-02-05T11:04:40.652Z,31.60
2018-02-05T11:07:07.590Z,31.60
2018-02-05T11:09:34.540Z,31.60
2018-02-05T11:12:01.482Z,31.60
2018-02-05T11:14:28.440Z,31.60
2018-02-05T11:16:55.396Z,31.70
2018-02-05T11:19:22.370Z,31.70
2018-02-05T11:21:49.301Z,31.70
2018-02-05T11:24:16.248Z,31.70
2018-02-05T11:26:43.212Z,31.70
2018-02-05T11:29:10.157Z,31.80
2018-02-05T11:31:37.121Z,31.80
2018-02-05T11:34:04.065Z,31.80
2018-02-05T11:36:31.036Z,31.90
2018-02-05T11:38:57.987Z,31.80
2018-02-05T11:41:25.156Z,31.90
2018-02-05T11:43:52.110Z,31.90
2018-02-05T11:46:19.078Z,31.90
2018-02-05T11:48:46.027Z,32.50
2018-02-05T11:51:12.993Z,31.90
2018-02-05T11:53:39.930Z,32.00
2018-02-05T11:56:06.870Z,31.90
2018-02-05T11:58:34.597Z,32.00
2018-02-05T12:01:01.521Z,31.90
2018-02-05T12:03:28.457Z,32.00
2018-02-05T12:05:55.411Z,32.00
2018-02-05T12:08:22.367Z,32.00
2018-02-05T12:10:49.309Z,32.00
2018-02-05T12:13:16.264Z,32.00
2018-02-05T12:15:43.200Z,32.00
2018-02-05T12:18:10.145Z,32.10
2018-02-05T12:20:37.859Z,32.80
2018-02-05T12:23:04.827Z,32.10
2018-02-05T12:25:31.785Z,32.10
2018-02-05T12:27:58.732Z,32.10
2018-02-05T12:30:25.713Z,32.20
2018-02-05T12:32:53.416Z,32.20
2018-02-05T12:35:20.376Z,32.20
2018-02-05T12:37:47.331Z,32.20
2018-02-05T12:40:14.255Z,32.20
2018-02-05T12:42:42.078Z,32.20
2018-02-05T12:45:09.029Z,32.30
2018-02-05T12:47:35.977Z,32.30
2018-02-05T12:50:02.937Z,32.30
2018-02-05T12:52:29.878Z,32.30
2018-02-05T12:54:56.830Z,32.30
2018-02-05T12:57:23.770Z,32.30
2018-02-05T12:59:50.745Z,32.30
2018-02-05T13:02:17.700Z,32.40
2018-02-05T13:04:45.412Z,32.50
2018-02-05T13:07:12.360Z,32.40
2018-02-05T13:09:39.304Z,32.40
2018-02-05T13:12:06.259Z,32.40
2018-02-05T13:14:33.200Z,32.50
2018-02-05T13:17:00.164Z,32.50
2018-02-05T13:19:27.121Z,32.50
2018-02-05T13:21:54.049Z,32.50
2018-02-05T13:24:20.999Z,32.50
2018-02-05T13:26:47.964Z,32.50
2018-02-05T13:29:14.909Z,32.40
2018-02-05T13:31:42.675Z,32.50
2018-02-05T13:34:10.376Z,32.50
2018-02-05T13:36:37.332Z,32.50
2018-02-05T13:39:04.289Z,32.50
2018-02-05T13:41:31.228Z,32.50
2018-02-05T13:43:58.171Z,32.50
2018-02-05T13:46:25.132Z,32.50
2018-02-05T13:48:52.081Z,32.50
2018-02-05T13:51:19.040Z,32.50
2018-02-05T13:53:46.002Z,32.50
2018-02-05T13:56:12.945Z,32.50
2018-02-05T13:58:39.909Z,32.40
2018-02-05T14:01:06.865Z,32.50
2018-02-05T14:03:33.831Z,32.50
2018-02-05T14:06:00.769Z,33.20
2018-02-05T14:08:28.481Z,32.40
2018-02-05T14:10:55.474Z,32.40
2018-02-05T14:13:22.413Z,32.50
2018-02-05T14:15:49.368Z,32.50
2018-02-05T14:25:56.346Z,32.60
2018-02-05T14:28:23.292Z,32.60
2018-02-05T14:30:50.240Z,32.70
2018-02-05T14:33:17.961Z,32.90
2018-02-05T14:35:44.904Z,32.90
2018-02-05T14:38:11.869Z,32.90
2018-02-05T14:40:38.812Z,33.00
2018-02-05T14:43:05.768Z,33.00
2018-02-05T14:45:32.732Z,33.00
2018-02-05T14:47:59.674Z,33.20
2018-02-05T14:50:26.621Z,33.20
2018-02-05T14:52:53.569Z,33.20
2018-02-05T14:55:20.530Z,33.30
2018-02-05T14:57:47.470Z,33.40
2018-02-05T15:00:14.417Z,33.30
2018-02-05T15:02:41.458Z,33.40
2018-02-05T15:05:08.545Z,33.40
2018-02-05T15:07:35.503Z,33.40
2018-02-05T15:10:02.446Z,33.40
2018-02-05T15:12:29.387Z,33.40
2018-02-05T15:14:56.331Z,33.40
2018-02-05T15:17:23.305Z,33.40
2018-02-05T15:19:50.255Z,33.40
2018-02-05T15:22:17.192Z,33.50
2018-02-05T15:24:44.667Z,33.50
2018-02-05T15:27:11.601Z,33.60
2018-02-05T15:29:38.561Z,33.60
2018-02-05T15:32:05.609Z,33.60
2018-02-05T15:34:32.558Z,33.70
2018-02-05T15:39:34.072Z,33.20
2018-02-05T15:42:02.856Z,33.40
2018-02-05T15:44:30.621Z,33.40
2018-02-05T15:46:58.327Z,33.40
2018-02-05T15:49:25.277Z,33.40
2018-02-05T15:51:52.219Z,33.40
2018-02-05T15:54:19.147Z,33.40
2018-02-05T15:56:48.965Z,33.60
2018-02-05T15:59:15.924Z,33.60
2018-02-05T16:01:42.880Z,33.60
2018-02-05T16:04:10.004Z,34.10
2018-02-05T16:06:37.747Z,33.20
2018-02-05T16:09:04.712Z,33.00
2018-02-05T16:11:31.718Z,32.40
2018-02-05T16:13:59.424Z,33.20
2018-02-05T16:16:26.369Z,33.20
2018-02-05T16:18:53.311Z,33.00
2018-02-05T16:21:20.321Z,33.10
2018-02-05T16:23:48.489Z,33.10
2018-02-05T16:26:15.416Z,33.10
2018-02-05T16:28:42.441Z,33.20
2018-02-05T16:31:09.364Z,33.30
2018-02-05T16:33:36.306Z,33.20
2018-02-05T16:36:04.024Z,33.60
2018-02-05T16:38:30.969Z,33.50
2018-02-05T16:40:57.921Z,33.20
2018-02-05T16:43:28.611Z,33.50
2018-02-05T16:45:56.334Z,33.90
2018-02-05T16:48:23.311Z,33.90
2018-02-05T16:50:50.272Z,33.90
2018-02-05T16:53:17.208Z,33.90
2018-02-05T16:55:44.161Z,33.90
2018-02-05T16:58:11.125Z,33.90
2018-02-05T17:03:12.921Z,33.70
2018-02-05T17:05:39.886Z,34.00
2018-02-05T17:08:06.828Z,34.00
2018-02-05T17:10:33.773Z,34.10
2018-02-05T17:13:00.799Z,34.00
2018-02-05T17:15:27.751Z,34.10
2018-02-05T17:17:54.688Z,34.00
2018-02-05T17:20:21.628Z,34.70
2018-02-05T17:22:48.576Z,34.10
2018-02-05T17:25:17.619Z,34.20
2018-02-05T17:27:45.329Z,34.10
2018-02-05T17:30:13.054Z,34.30
2018-02-05T17:32:40.783Z,34.20
2018-02-05T17:35:07.729Z,34.20
2018-02-05T17:37:34.668Z,34.30
2018-02-05T17:40:01.612Z,34.30
2018-02-05T17:42:28.556Z,34.30
2018-02-05T17:44:56.602Z,34.20
2018-02-05T17:47:24.304Z,34.20
2018-02-05T17:49:51.232Z,34.20
2018-02-05T17:52:18.173Z,34.20
2018-02-05T17:54:45.883Z,34.30
2018-02-05T17:57:12.812Z,34.30
2018-02-05T17:59:41.776Z,34.30
2018-02-05T18:02:09.481Z,34.30
2018-02-05T18:04:36.420Z,34.30
2018-02-05T18:07:03.374Z,33.70
2018-02-05T18:09:30.309Z,33.20
2018-02-05T18:11:57.284Z,33.00
2018-02-05T18:14:24.231Z,33.10
2018-02-05T18:16:51.223Z,33.00
2018-02-05T18:19:18.587Z,32.90
2018-02-05T18:21:45.531Z,32.80
2018-02-05T18:24:12.493Z,32.70
2018-02-05T18:26:39.431Z,32.60
2018-02-05T18:29:06.371Z,32.70
2018-02-05T18:31:33.310Z,32.60
2018-02-05T18:34:00.272Z,32.60
2018-02-05T18:36:27.224Z,32.60
2018-02-05T18:38:54.151Z,32.60
2018-02-05T18:41:21.091Z,32.60
2018-02-05T18:43:48.824Z,32.70
2018-02-05T18:46:15.768Z,32.70
2018-02-05T18:48:42.739Z,32.70
2018-02-05T18:51:10.467Z,32.60
2018-02-05T18:53:37.393Z,32.60
2018-02-05T18:56:04.416Z,32.60
2018-02-05T18:58:31.372Z,32.60
2018-02-05T19:01:02.936Z,32.60
2018-02-05T19:03:29.883Z,32.50
2018-02-05T19:05:56.824Z,32.60
2018-02-05T19:08:23.775Z,32.60
2018-02-05T19:10:51.476Z,33.20
2018-02-05T19:13:18.449Z,32.50
2018-02-05T19:15:45.388Z,32.50
2018-02-05T19:18:12.354Z,32.50
2018-02-05T19:20:39.280Z,32.50
2018-02-05T19:23:06.221Z,32.50
2018-02-05T19:25:33.161Z,32.50
2018-02-05T19:28:00.121Z,32.50
2018-02-05T19:30:27.083Z,32.30
2018-02-05T19:32:54.032Z,32.40
2018-02-05T19:40:27.134Z,32.20
2018-02-05T19:42:54.080Z,32.20
2018-02-05T19:45:21.064Z,32.20
2018-02-05T19:47:48.025Z,32.20
2018-02-05T19:55:24.674Z,32.10
2018-02-05T19:57:51.613Z,32.10
2018-02-05T20:00:18.544Z,32.10
2018-02-05T20:02:45.496Z,32.10
2018-02-05T20:05:12.460Z,32.00
2018-02-05T20:07:39.392Z,32.00
2018-02-05T20:10:06.329Z,32.10
2018-02-05T20:12:33.317Z,32.10
2018-02-05T20:15:00.229Z,32.00
2018-02-05T20:17:27.179Z,32.00
2018-02-05T20:19:54.120Z,32.00
2018-02-05T20:22:21.065Z,32.00
2018-02-05T20:24:47.997Z,32.00
2018-02-05T20:27:15.713Z,31.90
2018-02-05T20:29:42.660Z,31.90
2018-02-05T20:32:09.629Z,31.90
2018-02-05T20:34:36.588Z,31.80
2018-02-05T20:37:03.528Z,31.90
2018-02-05T20:39:30.477Z,31.50
2018-02-05T20:44:31.788Z,31.90
2018-02-05T20:46:59.494Z,31.90
2018-02-05T20:49:26.457Z,31.90
2018-02-05T20:51:53.430Z,31.80
2018-02-05T20:54:20.370Z,31.70
2018-02-05T20:56:47.320Z,31.80
2018-02-05T21:06:57.575Z,31.80
2018-02-05T21:09:24.524Z,31.80
2018-02-05T21:11:52.254Z,31.80
2018-02-05T21:14:19.189Z,31.80
2018-02-05T21:16:46.147Z,31.70
2018-02-05T21:19:13.089Z,31.80
2018-02-05T21:21:40.047Z,31.80
2018-02-05T21:24:06.996Z,31.80
2018-02-05T21:26:33.945Z,31.70
2018-02-05T21:29:00.892Z,31.90
2018-02-05T21:31:27.857Z,31.70
2018-02-05T21:33:54.804Z,31.70
2018-02-05T21:36:22.162Z,31.70
2018-02-05T21:38:49.137Z,31.70
2018-02-05T21:41:16.860Z,31.60
2018-02-05T21:43:43.785Z,31.60
2018-02-05T21:46:10.733Z,31.70
2018-02-05T21:48:37.688Z,31.50
2018-02-05T21:51:04.631Z,31.40
2018-02-05T21:53:33.612Z,31.40
2018-02-05T21:56:01.347Z,31.50
2018-02-05T21:58:28.292Z,31.50
2018-02-05T22:00:56.145Z,31.50
2018-02-05T22:03:23.123Z,31.40
2018-02-05T22:05:50.071Z,31.40
2018-02-05T22:08:17.070Z,31.50
2018-02-05T22:10:44.764Z,31.60
2018-02-05T22:13:11.727Z,31.50
2018-02-05T22:15:38.688Z,31.50
2018-02-05T22:18:05.607Z,31.50
2018-02-05T22:20:32.548Z,31.50
2018-02-05T22:22:59.484Z,31.50
2018-02-05T22:25:26.432Z,31.60
2018-02-05T22:27:54.144Z,31.60
2018-02-05T22:30:21.095Z,31.60
2018-02-05T22:32:48.073Z,31.70
2018-02-05T22:35:15.033Z,31.70
2018-02-05T22:37:41.968Z,31.60
2018-02-05T22:40:08.920Z,31.70
2018-02-05T22:42:35.852Z,31.70
2018-02-05T22:45:02.828Z,31.70
2018-02-05T22:47:29.812Z,31.60
2018-02-05T22:49:56.755Z,31.50
2018-02-05T22:52:24.468Z,31.50
2018-02-05T22:54:51.467Z,31.40
2018-02-05T22:57:24.142Z,31.50
2018-02-05T22:59:51.076Z,31.40
2018-02-05T23:02:18.065Z,31.40
2018-02-05T23:04:44.966Z,31.40
2018-02-05T23:07:11.921Z,31.40
2018-02-05T23:09:38.860Z,31.30
2018-02-05T23:12:05.803Z,31.40
2018-02-05T23:14:32.740Z,31.30
2018-02-05T23:16:59.718Z,31.70
2018-02-05T23:19:26.624Z,31.30
2018-02-05T23:21:53.590Z,31.20
2018-02-05T23:24:20.536Z,31.20
2018-02-05T23:26:47.485Z,31.40
2018-02-05T23:29:14.437Z,31.10
2018-02-05T23:31:41.388Z,31.10
2018-02-05T23:34:08.361Z,31.10
2018-02-05T23:36:35.301Z,31.00
2018-02-05T23:39:02.252Z,31.00
2018-02-05T23:41:29.196Z,30.90
2018-02-05T23:43:56.136Z,31.00
2018-02-05T23:46:23.117Z,30.90
2018-02-05T23:48:50.061Z,30.90
2018-02-05T23:51:18.080Z,30.90
2018-02-05T23:53:45.784Z,30.80
2018-02-05T23:56:12.740Z,30.80
2018-02-05T23:58:39.683Z,30.70
